Address 0x492c3344d06d607ac5eabb2306b22822e6ea53ed 1

 
 
Txn Hash Method
Block
From
To
Value [Txn Fee]
0xb74fc1604d2806918adbe7e8c4b472d2e286190f5b75d7f9a51b9ea317ef6ee20x1de9c881111157442021-09-21 19:13:0732 mins ago0x492c3344d06d607ac5eabb2306b22822e6ea53edOUT 0xc7064f072cdeb795dc591cf2d485385391af40d20 BNB0.00030968
0x989db0c6fceac73fd7a98aa7a4cb2067c484b2609001e0a24ab8c313c7e41d380x1de9c881111152342021-09-21 18:46:0659 mins ago0x492c3344d06d607ac5eabb2306b22822e6ea53edOUT 0xc7064f072cdeb795dc591cf2d485385391af40d20 BNB0.000497637
0x3026394956ecf81bdc2c9d73d5480e63266ab96f047dd429fe368dcdbfcfb4e70x1de9c881111141452021-09-21 17:51:131 hr 54 mins ago0x492c3344d06d607ac5eabb2306b22822e6ea53edOUT 0xc7064f072cdeb795dc591cf2d485385391af40d20 BNB0.001216248
0x0ca34b464a01418a938fe269d269a24fc3f28e35029be945db390ca3d6ccda2e0x1de9c881111140122021-09-21 17:44:252 hrs 1 min ago0x492c3344d06d607ac5eabb2306b22822e6ea53edOUT 0xc7064f072cdeb795dc591cf2d485385391af40d20 BNB0.000276294
0xf8b70990d2a0573a9474712f7b42057251ece5db9aa9669ddf7b2fc8318de95fTransfer111131262021-09-21 16:59:532 hrs 45 mins ago0x492c3344d06d607ac5eabb2306b22822e6ea53edSELF0x492c3344d06d607ac5eabb2306b22822e6ea53ed0 BNB0.00011655
0x53adf6074d5c51849a985f254ceae4ecdab38f323611dc3f06e84c5006eff8a90x1de9c881111130242021-09-21 16:54:472 hrs 50 mins ago0x492c3344d06d607ac5eabb2306b22822e6ea53edOUT 0xc7064f072cdeb795dc591cf2d485385391af40d20 BNB0.000301359648
0x8b10cb593a70ebd7ac507508ced82e01d6b4f90869e09ff5400eb1293a9543ac0x1de9c881111128742021-09-21 16:47:172 hrs 58 mins ago0x492c3344d06d607ac5eabb2306b22822e6ea53edOUT 0xc7064f072cdeb795dc591cf2d485385391af40d20 BNB0.000230085
0xe87dc64bffea0e33033e13639a943eeb3b5d2e72440d59fdf8e1c341f8144ce90x1de9c881111103252021-09-21 14:39:455 hrs 5 mins ago0x492c3344d06d607ac5eabb2306b22822e6ea53edOUT 0xc7064f072cdeb795dc591cf2d485385391af40d20 BNB0.000221015
0xa4433974dbb3806bc3cca3e26d16338d438472b1701134bd7f058b47aa15876aTransfer111087212021-09-21 13:19:316 hrs 25 mins ago0x492c3344d06d607ac5eabb2306b22822e6ea53edSELF0x492c3344d06d607ac5eabb2306b22822e6ea53ed0 BNB0.00011655
0x8f5c538730ce38d188c0da3fdd905575774f5da561ea1635f873c3d32df854a3Transfer111084442021-09-21 13:05:406 hrs 39 mins ago0x492c3344d06d607ac5eabb2306b22822e6ea53edSELF0x492c3344d06d607ac5eabb2306b22822e6ea53ed0 BNB0.00011655
0x346475e4102a811f72473f04a2291e346521fe1bbe8eee78edc1909cdf31a96bTransfer111083672021-09-21 13:01:496 hrs 43 mins ago0x492c3344d06d607ac5eabb2306b22822e6ea53edSELF0x492c3344d06d607ac5eabb2306b22822e6ea53ed0 BNB0.00011655
0x29cf9d3f92e63fe7712498d9ed7c9406b0aee313582c07a1034dc240f6bfe7fd0x1de9c881111081552021-09-21 12:51:136 hrs 54 mins ago0x492c3344d06d607ac5eabb2306b22822e6ea53edOUT 0xc7064f072cdeb795dc591cf2d485385391af40d20 BNB0.00018431
0x472a26e0a775666bd309cc41fbbae7040a5552858402723cb8b425e282fb41a60x1de9c881111075042021-09-21 12:18:387 hrs 26 mins ago0x492c3344d06d607ac5eabb2306b22822e6ea53edOUT 0xc7064f072cdeb795dc591cf2d485385391af40d20 BNB0.000210378
0x41271cac1cf07540ee6c514c2612f4e8d775eef00cf5993e9774a935294c808e0x1de9c881111055672021-09-21 10:41:469 hrs 3 mins ago0x492c3344d06d607ac5eabb2306b22822e6ea53edOUT 0xc7064f072cdeb795dc591cf2d485385391af40d20 BNB0.000212035
0x7bee9c05af1e0ff63cdfe1fbdb9e8ecb48bc9da2b51dbc6a939f34520004c996Transfer111052862021-09-21 10:27:439 hrs 17 mins ago0x492c3344d06d607ac5eabb2306b22822e6ea53edSELF0x492c3344d06d607ac5eabb2306b22822e6ea53ed0 BNB0.00011655
0x46a671afae46d9e7770cc02ca5bc7a484abea1bfd6f1295ee972b3b2354da5240x1de9c881111048722021-09-21 10:07:019 hrs 38 mins ago0x492c3344d06d607ac5eabb2306b22822e6ea53edOUT 0xc7064f072cdeb795dc591cf2d485385391af40d20 BNB0.000212035
0xb56e93bd1c88457cf40f0caaf7a9048e5c99db1aec92dacd8a3b5a6d167f7c660x1de9c881111031222021-09-21 8:39:2811 hrs 6 mins ago0x492c3344d06d607ac5eabb2306b22822e6ea53edOUT 0xc7064f072cdeb795dc591cf2d485385391af40d20 BNB0.00135786
0x958d8428b0661f9b79681fba1c3fd65438cbf1c08f3a031675d38bba123fd44f0x1de9c881111011972021-09-21 7:03:1112 hrs 42 mins ago0x492c3344d06d607ac5eabb2306b22822e6ea53edOUT 0xc7064f072cdeb795dc591cf2d485385391af40d20 BNB0.000220855
0x661f27ff3dac031594ea537775f89f55ad70f647b99128dde24f8ae02ae18fefTransfer111011252021-09-21 6:59:3512 hrs 45 mins ago0x492c3344d06d607ac5eabb2306b22822e6ea53edSELF0x492c3344d06d607ac5eabb2306b22822e6ea53ed0 BNB0.00011655
0xcf49385c93032ee2d429c90fe0cbd2b6de2ef89c45e575fecd5f3ba37dcdb6eaTransfer111005582021-09-21 6:31:1413 hrs 14 mins ago0x492c3344d06d607ac5eabb2306b22822e6ea53edSELF0x492c3344d06d607ac5eabb2306b22822e6ea53ed0 BNB0.00011655
0x43695a4305ea677a1c89638bc53e6c0f38a35acdd7d831452b4eb017692760a60x1de9c881110994152021-09-21 5:34:0514 hrs 11 mins ago0x492c3344d06d607ac5eabb2306b22822e6ea53edOUT 0xc7064f072cdeb795dc591cf2d485385391af40d20 BNB0.000221145
0xfa21cb833b34274930974ac4f780c515f32586f13fc757fab26e2856ac6c6f290x1de9c881110980902021-09-21 4:27:5015 hrs 17 mins ago0x492c3344d06d607ac5eabb2306b22822e6ea53edOUT 0xc7064f072cdeb795dc591cf2d485385391af40d20 BNB0.000221205
0x129d4379c67fd9a044853854ac848e18ec0f4357cc452c6f024b785ada15abb5Transfer110967622021-09-21 3:21:2616 hrs 24 mins ago0x492c3344d06d607ac5eabb2306b22822e6ea53edSELF0x492c3344d06d607ac5eabb2306b22822e6ea53ed0 BNB0.00016317
0x2663cdd0afbbe79978cbef06e692388d6aca9dbb7eadfcb03ba7f6eda6f30b0d0x1de9c881110963342021-09-21 3:00:0216 hrs 45 mins ago0x492c3344d06d607ac5eabb2306b22822e6ea53edOUT 0xc7064f072cdeb795dc591cf2d485385391af40d20 BNB0.0002213
0x05ea28f0eefb003bca902ee49c2e9e094d42052dc3bcddfb46a35307482f99a1Transfer110961872021-09-21 2:52:4116 hrs 52 mins ago0x492c3344d06d607ac5eabb2306b22822e6ea53edSELF0x492c3344d06d607ac5eabb2306b22822e6ea53ed0 BNB0.00011655
[ Download CSV Export 
Parent Txn Hash Block From To Value
Loading

Contract Name:
0 BNB

Compiler Version
0

Optimization Enabled:
0 BNB

Other Settings:
-NA-
Block Transaction Gas Used Reward
Age Block Fee Address BC Fee Address Voting Power Jailed Incoming
Block Uncle Number Difficulty Gas Used Reward
Loading
Loading
Make sure to use the "Vote Down" button for any spammy posts, and the "Vote Up" for interesting conversations.